Terminal Aerodrome Forecast
Issued by NWS

Home | Current Version | Previous Version | Text Only | Print | Product List | Glossary On
Versions: 1 2 3 4 5 6 7 8 9 10 11 12 13 14 15
000
FTUS45 KTFX 250543
TAFGTF
TAF
KGTF 250543Z 2506/2606 19005KT P6SM SCT100
     FM251700 28006KT P6SM SCT060 BKN120
     FM252000 30010KT P6SM SCT050 BKN090 PROB30 2521/2601 -TSRA
      BKN040CB=

USA.gov is the U.S. government's official web portal to all federal, state and local government web resources and services.